ADDS METAR Data INFO
IDs: Format: Raw Decoded Include TAF

Data at: 0247 UTC 17 Jan 2018

KLWC 170152Z AUTO 00000KT 10SM CLR M18/M20 A3074 RMK AO2 SLP432 T11831200
KLWC 170052Z AUTO 00000KT 10SM CLR M15/M19 A3074 RMK AO2 SLP430 T11501189
KLWC 162352Z AUTO 31003KT 10SM CLR M14/M18 A3073 RMK AO2 SLP430 T11391178 11106 21144 58001
KLWC 162252Z AUTO 29005KT 10SM CLR M12/M17 A3073 RMK AO2 SLP429 T11171167
KLWC 162152Z AUTO 28008KT 10SM CLR M11/M17 A3074 RMK AO2 SLP429 T11111167
KLWC 162052Z AUTO 28008KT 10SM CLR M11/M17 A3074 RMK AO2 SLP429 T11111167 56017
KLWC 161952Z AUTO 28008KT 10SM FEW025 M12/M17 A3075 RMK AO2 SLP432 T11171172
KLWC 161852Z AUTO 28012KT 10SM FEW034 M12/M17 A3076 RMK AO2 SLP437 T11221172
KLWC 161752Z AUTO 29010KT 10SM CLR M13/M18 A3079 RMK AO2 SLP447 T11281183 11128 21217 58001
KLWC 161652Z AUTO 30011KT 10SM CLR M14/M19 A3080 RMK AO2 SLP451 T11441194
KLWC 161620Z AUTO 32013KT 10SM FEW018 SCT027 M15/M20 A3080 RMK AO2 T11501200
KLWC 161552Z AUTO 32013KT 10SM SCT020 BKN027 M16/M21 A3079 RMK AO2 SLP449 T11611206
KLWC 161549Z AUTO 31013KT 10SM FEW020 BKN027 M16/M21 A3079 RMK AO2
KLWC 161452Z AUTO 30010KT 10SM CLR M17/M21 A3078 RMK AO2 SLP444 T11721211 53011
KLWC 161352Z AUTO 28008KT 10SM CLR M21/M24 A3076 RMK AO2 SLP440 T12111239
KLWC 161252Z AUTO 29006KT 10SM CLR M21/M24 A3076 RMK AO2 SLP439 T12111239
KLWC 161152Z AUTO 29007KT 10SM CLR M21/M24 A3075 RMK AO2 SLP432 T12061239 11172 21211 53002
KLWC 161052Z AUTO 29005KT 10SM CLR M21/M24 A3074 RMK AO2 SLP430 T12061239
KLWC 160952Z AUTO 29007KT 10SM CLR M19/M23 A3074 RMK AO2 SLP430 T11941233
KLWC 160852Z AUTO 29008KT 10SM CLR M19/M23 A3074 RMK AO2 SLP429 T11891233 53004
KLWC 160752Z AUTO 31009KT 10SM CLR M18/M23 A3072 RMK AO2 SLP423 T11831228
KLWC 160652Z AUTO 31008KT 10SM CLR M18/M23 A3073 RMK AO2 SLP424 T11831228
KLWC 160552Z AUTO 31013KT 10SM CLR M17/M22 A3073 RMK AO2 SLP425 T11721222 11133 21172 400171172 51006
KLWC 160452Z AUTO 32016KT 10SM CLR M17/M22 A3073 RMK AO2 SLP424 T11671217
KLWC 160352Z AUTO 32015G19KT 10SM CLR M16/M21 A3072 RMK AO2 SLP422 T11611206
KLWC 160252Z AUTO 32008KT 10SM CLR M17/M20 A3071 RMK AO2 SLP419 T11671200 51023
KLWC 160152Z AUTO 32010KT 10SM SCT027 BKN033 M15/M19 A3069 RMK AO2 SLP410 T11501194
KLWC 160052Z AUTO 32008KT 10SM CLR M16/M19 A3067 RMK AO2 SLP404 T11561194
KLWC 152352Z AUTO 33010KT 10SM OVC034 M13/M19 A3064 RMK AO2 SLP392 T11331189 11094 21133 53021
KLWC 152252Z AUTO 31015KT 10SM OVC035 M12/M18 A3062 RMK AO2 SLP383 T11171178
KLWC 152152Z AUTO 31020KT 10SM BKN036 M11/M17 A3060 RMK AO2 SLP375 T11111172
KLWC 152052Z AUTO 32015G21KT 10SM SCT035 M10/M17 A3058 RMK AO2 SLP368 T11001167 53001
KLWC 151952Z AUTO 31019G23KT 10SM BKN032 M10/M17 A3057 RMK AO2 PK WND 31026/1918 SLP362 T11001167
KLWC 151852Z AUTO 32018KT 10SM CLR M10/M16 A3056 RMK AO2 SLP362 T11001161
KLWC 151752Z AUTO 33015KT 10SM CLR M11/M17 A3058 RMK AO2 SLP366 T11061172 11083 21122 50016
KLWC 151652Z AUTO 31013KT 10SM CLR M12/M17 A3059 RMK AO2 SLP371 T11171172
KLWC 151552Z AUTO 31018G22KT 10SM CLR M12/M17 A3057 RMK AO2 PK WND 32027/1504 SLP365 T11171172
KLWC 151452Z AUTO 31016G28KT 10SM CLR M12/M18 A3053 RMK AO2 PK WND 31030/1411 SLP351 T11221178 53037